Ashburn, VA (20149)

7:20 PM EDT on June 29, 2015 (GMT -0400)
Ashburn Village 1 | | Change Station
CLOSE
Current Station
Personal Weather Station
Location: Ashburn, VA
Elevation: 279 ft
Nearby Weather Stations

Elev 279 ft 39.05 °N, 77.48 °W | Updated 3 seconds ago

Partly Cloudy
Partly Cloudy
79.7 °F
Feels Like 80 °F
N
6.0
Wind Variable Wind from WNW
Gusts 6.0 mph

Today
High -- | Low -- °F
--% Chance of Precip.
Yesterday
High -- | Low -- °F
Precip. -- in
5:46 AM 8:39 PM
Waxing Gibbous, 95% visible
Pressure 29.93 in
Visibility 10.0 miles
Clouds Clear
Heat Index 80 °F
Dew Point 58 °F
Humidity 48%
Rainfall 0.00 in
Snow Depth Not available.
UV 1 out of 12
Pollen 4.90 out of 12
Air Quality Not available.
Flu Activity Sporadic
METAR KJYO 292255Z AUTO 20009KT 10SM CLR 27/15 A2993 RMK AO2

More Conditions Fewer Conditions

Pressure 29.93 in
Visibility 10.0 miles
Clouds Clear
Heat Index 80 °F
Dew Point 58 °F
Humidity 48%
Rainfall 0.00 in
Snow Depth Not available.
UV 1 out of 12
Pollen 4.90 out of 12
Air Quality Not available.
Flu Activity Sporadic
METAR KJYO 292255Z AUTO 20009KT 10SM CLR 27/15 A2993 RMK AO2

More Conditions Fewer Conditions

10-Day Weather Forecast

×

Almanac

Astronomy

Jun. 29, 2015 Rise Set
Actual Time
Civil Twilight
Nautical Twilight
Astronomical Twilight
Moon
Length of Visible Light
Length of Day
Tomorrow will be .
, % of the Moon is Illuminated

Today's Extremes

State Highs State Lows

Community

WunderPhotos

Upload Photos

1,833,881 photos uploaded!

WunderBlogs® & News

Nearby

Air Quality

  Air Quality AQ Index Pollutant
Not available.

Snow Depth

Station Depth Elevation

Earthquake Activity

City Distance Mag. Time & Date
Minimum magnitude displayed is 2.5.

Coastal Water Temperatures

Place Temperature

Stations

Nearby Weather Stations

Station Location Temp. Windchill Dew Point Humidity Wind Precip. Elev Updated Type